Aérodrome :
LOGIN :

S'inscrire | Disclaimer

   EN    FR    IT 

 










Légende :    VFR   VFR Marginal   IFR   IFR Intensif   IFR Très Intensif
Visi : 
Plafond : 
>= 8 km
>= 3000ft
5 à 8 km
1000 à 3000 ft
1500m à 5 km
500 à 1000 ft
800 à 1500m
200 à 500 ft
< 800m
< 200 ft
Symboles :   Orages  Brouillard  Fortes neiges  Fortes précipitations  Vent > 20 kt
SIGMETs :   Divers  Orages  Givrage  Turbulence  Onde Orograph.  Cendres Volcan.







- Altitude de l'aérodrome : 584 ft
- Voir les cartes d'approche


LFPV - Villacoublay Vélizy

DERNIER METAR :
  • 280730Z AUTO 20012KT 140V230 9999 BKN015 BKN100 BKN140 04/01 Q0992 TEMPO 24015G25KT 4000 SHRA BKN014TCU

METARs EXPIRÉS :
  • 280700Z AUTO 20010KT 170V230 9999 FEW015 SCT026 BKN033 04/01 Q0993 TEMPO 24015G25KT 4000 SHRA BKN014TCU
  • 280630Z AUTO 20011KT 170V230 9999 BKN015 BKN022 BKN230 04/01 Q0993 TEMPO 24015G25KT 4000 SHRA BKN014TCU
  • 280600Z AUTO 20010KT 9999 BKN015 BKN022 BKN029 04/01 Q0993 NOSIG
  • 280530Z AUTO 20009KT 9999 BKN016 BKN032 BKN150 04/01 Q0994 NOSIG
  • 280500Z AUTO 21009KT 180V240 9999 FEW017 04/01 Q0994 NOSIG

TAF TAF LFPV
Valide du 28 à 03h jusqu'au 01 à 03h UTC


280200Z 2803/0103 22015KT 9999 BKN017
TEMPO 2808/2814 24015G25KT 4000 SHRA BKN014TCU
TEMPO 2817/2821 24015G25KT 4000 SHRA BKN013TCU
Pas de NOTAMs connus pour ce terrain.
1 SIGMET publié pour la FIR Paris (LFFF) :
 
Turbulence forte
LFFF SIGMET 1 VALID 280400/280800 LFPW
LFFF PARIS FIR/UIR SEV TURB FCST WI N4900 W00015 - N5000 W00015 - N5115 E00200 - N5015 E00200 SFC/FL060 STNR WKN=



MET'MAP, la Météo Aéronautique d'un coup d'oeil ! - Copyright ORBIFLY Décembre 2007 - Disclaimer

ORBIFLY MET'MAP TEAM :

Programmation & Développement : Alexandra Zaïnal
Conception & Développement : Baudouin d'Aumeries
Co-Programmation & Développement : Marc-Olivier Méhu
Soutien technique & logistique : Manuel Goepfert

Contact : metmap@orbifly.com




SOURCES & CREDITS :

   NOAA